Qiryat Yam, Israel
Current Conditions -  °F | °C
As of 7:50 AM on Thursday 27 Nov 2014 (Local Time) from LLHA Reporting Station
Light Rain Light Rain  
Wind Chill: 57°   Ceiling: 3500
Heat Index: 57°   Visibility: 6mi
Dew Point: 52°   Wind: 9mph
Humidity: 82%   Direction: 80°E
Pressure: 30"   Gusts: NA
Location:  32.84°N, 35.06°E
Report Text: LLHA 270550Z 08008KT 9999 -RA SCT025 BKN035 14/11 Q1016
Loading
Personal Weather Stations






























Interactive Weather Map New forecast layout! Learn more

10-Day Weather Forecast

Advertisements
Track Severe Weather on mobile